createdAt,value
2023-02-14T00:00:31.072Z,103601.09
2023-02-14T00:02:59.822Z,103609.94
2023-02-14T00:05:28.425Z,103597.50
2023-02-14T00:07:58.622Z,103596.66
2023-02-14T00:10:27.427Z,103601.00
2023-02-14T00:12:55.932Z,103595.69
2023-02-14T00:15:25.565Z,103602.81
2023-02-14T00:17:56.205Z,103587.66
2023-02-14T00:20:25.484Z,103596.63
2023-02-14T00:22:54.459Z,103600.13
2023-02-14T00:25:23.008Z,103594.75
2023-02-14T00:27:51.584Z,103593.97
2023-02-14T00:30:20.189Z,103592.16
2023-02-14T00:32:50.315Z,103600.13
2023-02-14T00:35:19.215Z,103582.38
2023-02-14T00:37:48.178Z,103591.13
2023-02-14T00:40:17.281Z,103589.47
2023-02-14T00:42:45.931Z,103589.44
2023-02-14T00:45:14.649Z,103585.00
2023-02-14T00:47:43.132Z,103592.06
2023-02-14T00:50:13.350Z,103586.69
2023-02-14T00:52:41.831Z,103579.66
2023-02-14T00:55:10.550Z,103578.72
2023-02-14T00:57:39.004Z,103571.66
2023-02-14T01:00:09.740Z,103574.31
2023-02-14T01:02:38.562Z,103560.09
2023-02-14T01:05:08.051Z,103567.22
2023-02-14T01:07:38.148Z,103558.25
2023-02-14T01:10:08.137Z,103566.25
2023-02-14T01:12:36.554Z,103558.22
2023-02-14T01:15:06.772Z,103561.78
2023-02-14T01:17:35.560Z,103552.94
2023-02-14T01:20:04.624Z,103552.88
2023-02-14T01:22:38.599Z,103556.13
2023-02-14T01:25:07.842Z,103558.06
2023-02-14T01:27:36.268Z,103547.34
2023-02-14T01:30:06.220Z,103556.31
2023-02-14T01:32:35.308Z,103560.56
2023-02-14T01:35:04.803Z,103562.41
2023-02-14T01:37:33.392Z,103565.03
2023-02-14T01:40:03.647Z,103547.28
2023-02-14T01:42:33.918Z,103557.97
2023-02-14T01:45:06.738Z,103562.28
2023-02-14T01:47:40.198Z,103566.59
2023-02-14T01:50:12.740Z,103564.84
2023-02-14T01:52:46.671Z,103561.41
2023-02-14T01:55:21.944Z,103558.75
2023-02-14T01:57:53.738Z,103558.69
2023-02-14T02:00:41.082Z,103552.47
2023-02-14T02:03:10.318Z,103546.94
2023-02-14T02:05:45.547Z,103557.72
2023-02-14T02:08:14.639Z,103550.53
2023-02-14T02:10:44.657Z,103553.16
2023-02-14T02:13:18.934Z,103543.34
2023-02-14T02:15:59.775Z,103551.00
2023-02-14T02:18:42.647Z,103534.31
2023-02-14T02:22:10.751Z,103552.94
2023-02-14T02:24:52.272Z,103541.44
2023-02-14T02:28:13.649Z,103544.84
2023-02-14T02:31:44.821Z,103544.78
2023-02-14T02:34:41.562Z,103552.75
2023-02-14T02:37:34.017Z,103543.88
2023-02-14T02:40:18.381Z,103550.91
2023-02-14T02:43:02.064Z,103548.22
2023-02-14T02:46:01.319Z,103555.88
2023-02-14T02:48:40.760Z,103557.75
2023-02-14T02:51:32.685Z,103548.13
2023-02-14T02:54:11.762Z,103539.22
2023-02-14T02:56:47.552Z,103542.69
2023-02-14T02:59:20.756Z,103530.38
2023-02-14T03:01:56.485Z,103541.00
2023-02-14T03:04:44.974Z,103543.69
2023-02-14T03:07:31.719Z,103547.81
2023-02-14T03:10:06.413Z,103538.31
2023-02-14T03:13:40.079Z,103532.06
2023-02-14T03:16:33.275Z,103535.63
2023-02-14T03:20:00.018Z,103525.69
2023-02-14T03:22:49.761Z,103535.19
2023-02-14T03:25:40.143Z,103544.91
2023-02-14T03:28:18.963Z,103531.69
2023-02-14T03:30:59.281Z,103519.84
2023-02-14T03:33:36.136Z,103526.47
2023-02-14T03:36:12.157Z,103529.78
2023-02-14T03:38:51.354Z,103530.03
2023-02-14T03:41:27.348Z,103528.97
2023-02-14T03:44:00.381Z,103521.31
2023-02-14T03:46:33.492Z,103522.13
2023-02-14T03:49:06.868Z,103516.88
2023-02-14T03:51:37.033Z,103511.66
2023-02-14T03:54:10.486Z,103519.34
2023-02-14T03:56:47.381Z,103521.81
2023-02-14T03:59:19.582Z,103526.19
2023-02-14T04:01:53.764Z,103514.88
2023-02-14T04:04:27.292Z,103528.19
2023-02-14T04:06:56.072Z,103529.03
2023-02-14T04:09:24.586Z,103519.13
2023-02-14T04:11:54.456Z,103532.19
2023-02-14T04:14:22.810Z,103531.47
2023-02-14T04:17:08.743Z,103532.53
2023-02-14T04:19:37.032Z,103527.63
2023-02-14T04:22:05.350Z,103528.63
2023-02-14T04:24:33.610Z,103527.19
2023-02-14T04:27:13.598Z,103519.25
2023-02-14T04:29:45.047Z,103509.38
2023-02-14T04:32:16.698Z,103522.63
2023-02-14T04:34:45.631Z,103519.16
2023-02-14T04:37:18.063Z,103504.94
2023-02-14T04:39:46.780Z,103512.03
2023-02-14T04:42:17.584Z,103508.41
2023-02-14T04:44:45.893Z,103499.28
2023-02-14T04:47:15.757Z,103510.09
2023-02-14T04:49:44.374Z,103513.38
2023-02-14T04:52:13.240Z,103512.38
2023-02-14T04:54:41.624Z,103510.09
2023-02-14T04:57:10.424Z,103511.97
2023-02-14T04:59:40.146Z,103511.81
2023-02-14T05:02:08.652Z,103520.03
2023-02-14T05:04:37.200Z,103511.16
2023-02-14T05:07:05.757Z,103510.63
2023-02-14T05:09:34.264Z,103517.44
2023-02-14T05:12:02.741Z,103517.16
2023-02-14T05:14:33.952Z,103523.22
2023-02-14T05:17:06.239Z,103516.50
2023-02-14T05:19:36.585Z,103524.47
2023-02-14T05:22:05.743Z,103514.09
2023-02-14T05:24:34.489Z,103522.13
2023-02-14T05:27:03.374Z,103509.91
2023-02-14T05:29:33.028Z,103507.16
2023-02-14T05:32:05.693Z,103504.50
2023-02-14T05:34:35.901Z,103509.09
2023-02-14T05:37:07.308Z,103499.34
2023-02-14T05:39:36.518Z,103507.28
2023-02-14T05:44:36.106Z,103510.59
2023-02-14T05:47:04.758Z,103507.28
2023-02-14T05:49:38.518Z,103502.88
2023-02-14T05:52:07.863Z,103500.41
2023-02-14T05:54:36.893Z,103501.31
2023-02-14T05:57:06.429Z,103501.31
2023-02-14T05:59:35.124Z,103492.44
2023-02-14T06:02:06.257Z,103495.94
2023-02-14T06:04:36.490Z,103491.53
2023-02-14T06:07:06.563Z,103487.09
2023-02-14T06:09:38.180Z,103495.06
2023-02-14T06:12:10.682Z,103493.97
2023-02-14T06:14:41.506Z,103494.97
2023-02-14T06:17:10.664Z,103495.78
2023-02-14T06:19:43.602Z,103490.53
2023-02-14T06:22:12.329Z,103498.63
2023-02-14T06:24:41.157Z,103500.44
2023-02-14T06:27:09.867Z,103506.59
2023-02-14T06:29:38.484Z,103501.25
2023-02-14T06:32:07.593Z,103503.91
2023-02-14T06:34:39.004Z,103503.84
2023-02-14T06:37:09.112Z,103496.81
2023-02-14T06:39:39.269Z,103505.66
2023-02-14T06:42:07.921Z,103492.34
2023-02-14T06:44:36.627Z,103487.91
2023-02-14T06:47:06.010Z,103503.81
2023-02-14T06:49:34.625Z,103486.97
2023-02-14T06:52:03.348Z,103496.63
2023-02-14T06:54:33.467Z,103504.63
2023-02-14T06:57:03.527Z,103501.06
2023-02-14T06:59:31.961Z,103502.03
2023-02-14T07:02:00.618Z,103498.59
2023-02-14T07:04:29.100Z,103502.03
2023-02-14T07:06:57.775Z,103506.56
2023-02-14T07:09:26.459Z,103505.91
2023-02-14T07:11:56.770Z,103504.44
2023-02-14T07:14:27.598Z,103500.34
2023-02-14T07:16:56.456Z,103501.88
2023-02-14T07:19:25.283Z,103500.06
2023-02-14T07:21:53.815Z,103504.78
2023-02-14T07:24:22.401Z,103498.69
2023-02-14T07:26:50.896Z,103506.75
2023-02-14T07:29:21.023Z,103509.13
2023-02-14T07:31:49.809Z,103503.03
2023-02-14T07:34:18.357Z,103507.53
2023-02-14T07:36:46.932Z,103505.69
2023-02-14T07:39:15.528Z,103503.56
2023-02-14T07:41:44.012Z,103509.16
2023-02-14T07:44:12.857Z,103509.66
2023-02-14T07:46:42.927Z,103512.16
2023-02-14T07:49:12.018Z,103493.75
2023-02-14T07:51:40.864Z,103509.75
2023-02-14T07:54:10.395Z,103509.69
2023-02-14T07:56:39.361Z,103515.03
2023-02-14T07:59:08.135Z,103515.34
2023-02-14T08:01:37.495Z,103513.66
2023-02-14T08:04:07.807Z,103511.16
2023-02-14T08:06:36.585Z,103513.66
2023-02-14T08:09:05.349Z,103514.09
2023-02-14T08:11:51.331Z,103508.00
2023-02-14T08:14:20.159Z,103515.25
2023-02-14T08:16:48.940Z,103507.75
2023-02-14T08:19:18.883Z,103516.03
2023-02-14T08:21:47.647Z,103514.47
2023-02-14T08:24:16.202Z,103507.38
2023-02-14T08:26:44.696Z,103514.53
2023-02-14T08:29:15.007Z,103509.28
2023-02-14T08:31:45.526Z,103518.09
2023-02-14T08:34:14.476Z,103514.78
2023-02-14T08:36:44.925Z,103517.28
2023-02-14T08:39:13.366Z,103518.56
2023-02-14T08:41:46.963Z,103525.56
2023-02-14T08:44:16.719Z,103520.03
2023-02-14T08:46:45.386Z,103523.13
2023-02-14T08:49:13.994Z,103519.72
2023-02-14T08:51:45.150Z,103525.13
2023-02-14T08:54:13.795Z,103516.91
2023-02-14T08:56:42.465Z,103532.19
2023-02-14T08:59:11.367Z,103519.81
2023-02-14T09:01:39.914Z,103517.06
2023-02-14T09:04:08.500Z,103515.47
2023-02-14T09:06:39.730Z,103507.47
2023-02-14T09:09:09.792Z,103501.25
2023-02-14T09:11:38.944Z,103510.19
2023-02-14T09:14:07.594Z,103509.34
2023-02-14T09:16:36.503Z,103497.78
2023-02-14T09:19:05.362Z,103495.06
2023-02-14T09:21:37.853Z,103494.19
2023-02-14T09:24:08.351Z,103485.31
2023-02-14T09:26:40.865Z,103485.25
2023-02-14T09:29:11.520Z,103497.63
2023-02-14T09:31:40.256Z,103497.59
2023-02-14T09:34:26.574Z,103497.63
2023-02-14T09:36:55.603Z,103490.59
2023-02-14T09:39:25.877Z,103492.19
2023-02-14T09:42:28.314Z,103487.50
2023-02-14T09:45:02.487Z,103481.03
2023-02-14T09:47:41.066Z,103489.22
2023-02-14T09:50:20.871Z,103493.69
2023-02-14T09:52:53.617Z,103495.25
2023-02-14T09:55:33.886Z,103499.63
2023-02-14T09:58:12.131Z,103493.22
2023-02-14T10:00:48.826Z,103500.25
2023-02-14T10:04:07.179Z,103495.06
2023-02-14T10:06:53.658Z,103489.19
2023-02-14T10:09:50.238Z,103498.63
2023-02-14T10:12:26.415Z,103489.34
2023-02-14T10:14:57.921Z,103480.28
2023-02-14T10:17:37.616Z,103483.47
2023-02-14T10:20:17.815Z,103479.19
2023-02-14T10:22:56.287Z,103483.75
2023-02-14T10:25:30.201Z,103481.91
2023-02-14T10:28:02.769Z,103479.19
2023-02-14T10:30:40.019Z,103477.31
2023-02-14T10:33:17.781Z,103480.94
2023-02-14T10:35:50.434Z,103473.59
2023-02-14T10:38:42.462Z,103478.03
2023-02-14T10:41:33.169Z,103475.31
2023-02-14T10:44:20.500Z,103469.50
2023-02-14T10:46:57.812Z,103460.03
2023-02-14T10:49:40.758Z,103471.75
2023-02-14T10:52:19.440Z,103465.56
2023-02-14T10:54:55.671Z,103465.16
2023-02-14T10:57:30.486Z,103459.50
2023-02-14T11:00:05.170Z,103455.34
2023-02-14T11:02:37.688Z,103447.75
2023-02-14T11:05:07.642Z,103447.84
2023-02-14T11:07:36.480Z,103455.91
2023-02-14T11:10:11.308Z,103458.63
2023-02-14T11:12:42.255Z,103459.13
2023-02-14T11:15:24.739Z,103448.06
2023-02-14T11:18:16.242Z,103459.63
2023-02-14T11:20:44.810Z,103455.41
2023-02-14T11:23:21.329Z,103447.38
2023-02-14T11:25:57.354Z,103441.66
2023-02-14T11:28:25.989Z,103439.38
2023-02-14T11:30:56.781Z,103445.22
2023-02-14T11:33:39.709Z,103435.84
2023-02-14T11:36:14.375Z,103442.56
2023-02-14T11:38:45.333Z,103430.72
2023-02-14T11:41:18.171Z,103438.72
2023-02-14T11:43:49.311Z,103423.34
2023-02-14T11:46:30.529Z,103428.25
2023-02-14T11:49:02.539Z,103414.72
2023-02-14T11:51:35.388Z,103414.81
2023-02-14T11:54:06.743Z,103411.13
2023-02-14T11:56:57.924Z,103394.72
2023-02-14T11:59:32.739Z,103409.31
2023-02-14T12:02:21.387Z,103397.75
2023-02-14T12:04:54.205Z,103388.88
2023-02-14T12:07:29.734Z,103381.88
2023-02-14T12:10:24.999Z,103383.00
2023-02-14T12:13:03.082Z,103376.50
2023-02-14T12:15:36.883Z,103372.94
2023-02-14T12:18:58.515Z,103372.88
2023-02-14T12:21:48.079Z,103353.03
2023-02-14T12:24:30.853Z,103360.06
2023-02-14T12:27:15.860Z,103346.19
2023-02-14T12:29:50.444Z,103336.78
2023-02-14T12:32:24.488Z,103344.63
2023-02-14T12:35:03.425Z,103350.66
2023-02-14T12:37:45.526Z,103337.69
2023-02-14T12:40:28.981Z,103341.16
2023-02-14T12:43:26.727Z,103332.56
2023-02-14T12:46:21.769Z,103336.44
2023-02-14T12:49:34.905Z,103332.50
2023-02-14T12:52:26.692Z,103333.63
2023-02-14T12:55:24.651Z,103333.19
2023-02-14T12:58:01.676Z,103330.75
2023-02-14T13:00:43.813Z,103328.44
2023-02-14T13:03:43.906Z,103325.94
2023-02-14T13:06:21.371Z,103321.81
2023-02-14T13:09:14.956Z,103305.66
2023-02-14T13:11:59.924Z,103307.63
2023-02-14T13:14:46.726Z,103304.16
2023-02-14T13:17:28.428Z,103294.78
2023-02-14T13:20:09.956Z,103296.56
2023-02-14T13:22:41.715Z,103288.63
2023-02-14T13:25:31.736Z,103290.00
2023-02-14T13:28:03.071Z,103281.56
2023-02-14T13:30:35.202Z,103273.19
2023-02-14T13:33:10.935Z,103266.88
2023-02-14T13:35:40.931Z,103274.19
2023-02-14T13:38:16.616Z,103273.53
2023-02-14T13:40:48.432Z,103278.28
2023-02-14T13:43:59.546Z,103270.47
2023-02-14T13:46:53.325Z,103259.69
2023-02-14T13:49:34.637Z,103262.59
2023-02-14T13:52:06.603Z,103252.72
2023-02-14T13:54:47.652Z,103239.38
2023-02-14T13:57:34.062Z,103247.97
2023-02-14T14:00:43.202Z,103239.47
2023-02-14T14:03:16.408Z,103238.22
2023-02-14T14:06:07.877Z,103248.31
2023-02-14T14:08:41.405Z,103248.31
2023-02-14T14:11:58.837Z,103251.50
2023-02-14T14:14:41.161Z,103263.84
2023-02-14T14:17:29.098Z,103250.53
2023-02-14T14:19:58.154Z,103259.47
2023-02-14T14:22:27.900Z,103257.66
2023-02-14T14:25:03.998Z,103253.91
2023-02-14T14:27:36.973Z,103236.13
2023-02-14T14:30:08.844Z,103254.19
2023-02-14T14:32:40.328Z,103246.09
2023-02-14T14:35:19.706Z,103239.44
2023-02-14T14:37:54.597Z,103231.25
2023-02-14T14:40:28.906Z,103225.41
2023-02-14T14:43:03.170Z,103223.78
2023-02-14T14:45:32.643Z,103225.09
2023-02-14T14:48:12.401Z,103229.16
2023-02-14T14:50:46.577Z,103229.13
2023-02-14T14:53:22.743Z,103232.00
2023-02-14T14:55:52.373Z,103231.75
2023-02-14T14:58:40.741Z,103230.72
2023-02-14T15:01:16.130Z,103226.28
2023-02-14T15:03:46.110Z,103234.75
2023-02-14T15:06:20.546Z,103228.63
2023-02-14T15:08:51.638Z,103226.31
2023-02-14T15:11:41.884Z,103222.50
2023-02-14T15:14:19.894Z,103230.56
2023-02-14T15:16:52.584Z,103217.09
2023-02-14T15:19:33.550Z,103221.06
2023-02-14T15:22:03.855Z,103222.00
2023-02-14T15:24:35.447Z,103220.00
2023-02-14T15:27:05.485Z,103223.22
2023-02-14T15:29:35.447Z,103226.75
2023-02-14T15:32:04.536Z,103220.59
2023-02-14T15:34:38.482Z,103218.56
2023-02-14T15:37:08.068Z,103220.31
2023-02-14T15:39:41.667Z,103219.59
2023-02-14T15:42:25.886Z,103213.28
2023-02-14T15:45:17.262Z,103211.66
2023-02-14T15:47:50.215Z,103212.00
2023-02-14T15:50:25.388Z,103209.25
2023-02-14T15:52:57.011Z,103219.78
2023-02-14T15:55:28.841Z,103208.03
2023-02-14T15:58:01.069Z,103199.94
2023-02-14T16:00:31.714Z,103197.09
2023-02-14T16:03:06.118Z,103199.00
2023-02-14T16:05:36.753Z,103208.44
2023-02-14T16:08:08.898Z,103197.94
2023-02-14T16:10:40.122Z,103190.38
2023-02-14T16:13:20.592Z,103200.75
2023-02-14T16:15:59.726Z,103185.06
2023-02-14T16:18:39.197Z,103201.22
2023-02-14T16:21:23.650Z,103195.31
2023-02-14T16:24:13.910Z,103199.75
2023-02-14T16:26:44.759Z,103193.94
2023-02-14T16:29:16.148Z,103194.50
2023-02-14T16:32:12.045Z,103188.06
2023-02-14T16:34:38.614Z,103196.88
2023-02-14T16:37:19.150Z,103195.88
2023-02-14T16:39:48.126Z,103188.94
2023-02-14T16:42:19.316Z,103193.16
2023-02-14T16:44:48.517Z,103199.28
2023-02-14T16:47:19.532Z,103187.19
2023-02-14T16:49:48.748Z,103191.13
2023-02-14T16:52:23.934Z,103189.13
2023-02-14T16:54:52.586Z,103192.69
2023-02-14T16:57:27.458Z,103191.84
2023-02-14T16:59:57.819Z,103196.53
2023-02-14T17:02:28.488Z,103202.16
2023-02-14T17:04:57.496Z,103198.97
2023-02-14T17:07:30.558Z,103205.59
2023-02-14T17:10:06.375Z,103208.59
2023-02-14T17:12:41.928Z,103212.53
2023-02-14T17:15:17.248Z,103206.78
2023-02-14T17:17:47.245Z,103213.38
2023-02-14T17:20:20.061Z,103214.34
2023-02-14T17:22:49.954Z,103209.25
2023-02-14T17:25:18.778Z,103210.34
2023-02-14T17:27:58.508Z,103215.91
2023-02-14T17:30:27.214Z,103207.34
2023-02-14T17:32:55.688Z,103205.78
2023-02-14T17:35:24.342Z,103205.03
2023-02-14T17:37:55.088Z,103218.50
2023-02-14T17:40:24.192Z,103214.25
2023-02-14T17:42:54.611Z,103200.16
2023-02-14T17:45:24.420Z,103211.78
2023-02-14T17:47:54.072Z,103209.22
2023-02-14T17:50:23.473Z,103207.59
2023-02-14T17:52:56.861Z,103208.63
2023-02-14T17:55:26.022Z,103210.56
2023-02-14T17:57:54.649Z,103217.78
2023-02-14T18:00:24.826Z,103218.03
2023-02-14T18:02:53.540Z,103205.59
2023-02-14T18:05:22.027Z,103213.75
2023-02-14T18:07:52.913Z,103207.66
2023-02-14T18:10:23.043Z,103208.66
2023-02-14T18:12:51.713Z,103214.19
2023-02-14T18:15:21.034Z,103206.22
2023-02-14T18:17:51.782Z,103203.69
2023-02-14T18:20:23.240Z,103203.78
2023-02-14T18:22:51.907Z,103197.69
2023-02-14T18:25:20.898Z,103199.63
2023-02-14T18:27:50.904Z,103200.78
2023-02-14T18:30:20.056Z,103200.31
2023-02-14T18:32:48.821Z,103192.88
2023-02-14T18:35:17.969Z,103194.59
2023-02-14T18:37:46.551Z,103178.69
2023-02-14T18:40:20.233Z,103180.47
2023-02-14T18:42:50.364Z,103174.22
2023-02-14T18:45:19.513Z,103171.63
2023-02-14T18:47:48.216Z,103165.50
2023-02-14T18:50:17.568Z,103163.69
2023-02-14T18:52:46.594Z,103161.97
2023-02-14T18:55:15.654Z,103170.03
2023-02-14T18:57:44.887Z,103186.09
2023-02-14T19:00:18.558Z,103175.47
2023-02-14T19:02:47.850Z,103161.34
2023-02-14T19:05:16.872Z,103168.47
2023-02-14T19:07:46.298Z,103162.34
2023-02-14T19:10:14.980Z,103168.50
2023-02-14T19:12:43.976Z,103175.66
2023-02-14T19:15:17.631Z,103162.31
2023-02-14T19:17:46.241Z,103171.28
2023-02-14T19:20:16.591Z,103176.66
2023-02-14T19:22:45.578Z,103172.34
2023-02-14T19:25:14.271Z,103168.88
2023-02-14T19:27:43.226Z,103175.03
2023-02-14T19:30:12.788Z,103175.06
2023-02-14T19:32:43.120Z,103165.50
2023-02-14T19:35:11.901Z,103172.59
2023-02-14T19:37:40.656Z,103161.00
2023-02-14T19:40:11.590Z,103161.91
2023-02-14T19:42:40.106Z,103164.63
2023-02-14T19:45:09.669Z,103156.69
2023-02-14T19:47:47.015Z,103163.84
2023-02-14T19:50:19.434Z,103156.75
2023-02-14T19:53:07.633Z,103161.16
2023-02-14T19:55:36.677Z,103157.63
2023-02-14T19:58:05.820Z,103164.72
2023-02-14T20:00:35.291Z,103148.75
2023-02-14T20:03:06.240Z,103157.69
2023-02-14T20:05:39.965Z,103147.06
2023-02-14T20:08:09.786Z,103147.06
2023-02-14T20:10:38.657Z,103145.28
2023-02-14T20:13:08.846Z,103135.53
2023-02-14T20:15:38.422Z,103141.72
2023-02-14T20:18:07.899Z,103130.22
2023-02-14T20:20:52.013Z,103133.75
2023-02-14T20:23:21.180Z,103135.56
2023-02-14T20:25:49.829Z,103134.66
2023-02-14T20:28:18.532Z,103132.88
2023-02-14T20:30:47.197Z,103132.94
2023-02-14T20:33:16.240Z,103133.81
2023-02-14T20:35:46.399Z,103124.09
2023-02-14T20:38:15.166Z,103123.19
2023-02-14T20:40:44.632Z,103117.84
2023-02-14T20:43:13.348Z,103119.66
2023-02-14T20:45:41.978Z,103116.97
2023-02-14T20:48:11.044Z,103117.00
2023-02-14T20:50:42.653Z,103118.75
2023-02-14T20:53:12.931Z,103113.47
2023-02-14T20:55:44.949Z,103110.78
2023-02-14T20:58:13.756Z,103108.13
2023-02-14T21:00:42.665Z,103109.00
2023-02-14T21:03:11.200Z,103113.47
2023-02-14T21:05:40.527Z,103097.53
2023-02-14T21:08:13.615Z,103101.94
2023-02-14T21:10:43.878Z,103112.56
2023-02-14T21:13:12.642Z,103105.47
2023-02-14T21:15:41.276Z,103103.72
2023-02-14T21:18:10.215Z,103099.31
2023-02-14T21:20:39.118Z,103101.06
2023-02-14T21:23:07.688Z,103094.88
2023-02-14T21:25:38.058Z,103105.50
2023-02-14T21:28:06.646Z,103087.78
2023-02-14T21:30:35.418Z,103087.81
2023-02-14T21:33:04.369Z,103080.69
2023-02-14T21:35:32.864Z,103083.38
2023-02-14T21:38:01.460Z,103079.81
2023-02-14T21:40:30.058Z,103090.44
2023-02-14T21:43:03.933Z,103090.44
2023-02-14T21:45:49.951Z,103084.25
2023-02-14T21:48:35.824Z,103088.66
2023-02-14T21:51:07.792Z,103076.25
2023-02-14T21:53:36.618Z,103072.72
2023-02-14T21:56:10.588Z,103075.38
2023-02-14T21:58:44.122Z,103070.06
2023-02-14T22:01:18.334Z,103064.72
2023-02-14T22:03:47.744Z,103072.72
2023-02-14T22:06:17.132Z,103065.63
2023-02-14T22:08:46.154Z,103067.41
2023-02-14T22:11:17.449Z,103067.41
2023-02-14T22:13:47.676Z,103070.06
2023-02-14T22:16:20.806Z,103064.75
2023-02-14T22:19:06.146Z,103071.81
2023-02-14T22:21:35.026Z,103061.16
2023-02-14T22:24:04.088Z,103069.09
2023-02-14T22:26:38.696Z,103061.16
2023-02-14T22:29:12.010Z,103063.78
2023-02-14T22:31:44.383Z,103052.25
2023-02-14T22:34:17.752Z,103047.81
2023-02-14T22:36:46.831Z,103056.69
2023-02-14T22:39:17.577Z,103048.69
2023-02-14T22:41:48.823Z,103051.38
2023-02-14T22:44:19.639Z,103053.13
2023-02-14T22:46:49.389Z,103057.56
2023-02-14T22:49:18.023Z,103059.34
2023-02-14T22:51:46.821Z,103064.63
2023-02-14T22:54:17.646Z,103054.91
2023-02-14T22:56:50.250Z,103055.78
2023-02-14T22:59:23.339Z,103055.78
2023-02-14T23:01:54.211Z,103046.91
2023-02-14T23:04:27.118Z,103058.44
2023-02-14T23:06:55.808Z,103051.34
2023-02-14T23:09:25.580Z,103063.66
2023-02-14T23:11:54.056Z,103069.00
2023-02-14T23:14:41.241Z,103067.25
2023-02-14T23:17:36.773Z,103063.69
2023-02-14T23:20:23.364Z,103069.00
2023-02-14T23:22:52.192Z,103060.16
2023-02-14T23:25:21.071Z,103058.38
2023-02-14T23:27:49.899Z,103065.47
2023-02-14T23:30:21.198Z,103067.97
2023-02-14T23:32:49.805Z,103052.03
2023-02-14T23:35:18.668Z,103058.25
2023-02-14T23:37:47.878Z,103041.38
2023-02-14T23:40:16.652Z,103039.66
2023-02-14T23:42:45.339Z,103049.38
2023-02-14T23:45:31.653Z,103054.69
2023-02-14T23:48:05.651Z,103047.56
2023-02-14T23:50:34.509Z,103044.06
2023-02-14T23:53:03.121Z,103045.84
2023-02-14T23:55:31.999Z,103035.19
2023-02-14T23:58:01.349Z,103044.91
